sensor_id;sensor_type;location;lat;lon;timestamp;temperature;humidity
20740;DHT22;10530;49.968;19.844;2022-12-26T00:02:51;2.40;99.90
20740;DHT22;10530;49.968;19.844;2022-12-26T00:07:53;2.40;99.90
20740;DHT22;10530;49.968;19.844;2022-12-26T00:12:56;2.30;99.90
20740;DHT22;10530;49.968;19.844;2022-12-26T00:18:19;2.30;99.90
20740;DHT22;10530;49.968;19.844;2022-12-26T00:23:22;2.50;99.90
20740;DHT22;10530;49.968;19.844;2022-12-26T00:28:25;2.50;99.90
20740;DHT22;10530;49.968;19.844;2022-12-26T00:33:29;2.50;99.90
20740;DHT22;10530;49.968;19.844;2022-12-26T00:38:34;2.40;99.90
20740;DHT22;10530;49.968;19.844;2022-12-26T00:43:36;2.40;99.90
20740;DHT22;10530;49.968;19.844;2022-12-26T00:48:39;2.30;99.90
20740;DHT22;10530;49.968;19.844;2022-12-26T00:53:42;2.30;99.90
20740;DHT22;10530;49.968;19.844;2022-12-26T00:58:45;2.30;99.90
20740;DHT22;10530;49.968;19.844;2022-12-26T01:03:49;2.40;99.90
20740;DHT22;10530;49.968;19.844;2022-12-26T01:08:52;2.40;99.90
20740;DHT22;10530;49.968;19.844;2022-12-26T01:13:55;2.40;99.90
20740;DHT22;10530;49.968;19.844;2022-12-26T01:18:58;2.40;99.90
20740;DHT22;10530;49.968;19.844;2022-12-26T01:24:04;2.40;99.90
20740;DHT22;10530;49.968;19.844;2022-12-26T01:29:10;2.50;99.90
20740;DHT22;10530;49.968;19.844;2022-12-26T01:34:13;2.40;99.90
20740;DHT22;10530;49.968;19.844;2022-12-26T01:39:16;2.50;99.90
20740;DHT22;10530;49.968;19.844;2022-12-26T01:49:59;2.80;99.90
20740;DHT22;10530;49.968;19.844;2022-12-26T01:55:02;2.90;99.90
20740;DHT22;10530;49.968;19.844;2022-12-26T02:00:08;2.90;99.90
20740;DHT22;10530;49.968;19.844;2022-12-26T02:05:17;2.70;99.90
20740;DHT22;10530;49.968;19.844;2022-12-26T02:10:49;2.80;99.90
20740;DHT22;10530;49.968;19.844;2022-12-26T02:15:53;2.70;99.90
20740;DHT22;10530;49.968;19.844;2022-12-26T02:21:09;2.80;99.90
20740;DHT22;10530;49.968;19.844;2022-12-26T02:37:31;3.00;99.90
20740;DHT22;10530;49.968;19.844;2022-12-26T02:42:47;2.90;99.90
20740;DHT22;10530;49.968;19.844;2022-12-26T02:48:19;2.80;99.90
20740;DHT22;10530;49.968;19.844;2022-12-26T02:59:00;2.70;99.90
20740;DHT22;10530;49.968;19.844;2022-12-26T03:04:44;2.80;99.90
20740;DHT22;10530;49.968;19.844;2022-12-26T03:10:19;2.80;99.90
20740;DHT22;10530;49.968;19.844;2022-12-26T03:16:02;2.80;99.90
20740;DHT22;10530;49.968;19.844;2022-12-26T03:21:28;3.00;99.90
20740;DHT22;10530;49.968;19.844;2022-12-26T03:26:36;3.10;99.90
20740;DHT22;10530;49.968;19.844;2022-12-26T03:31:42;3.10;99.90
20740;DHT22;10530;49.968;19.844;2022-12-26T03:42:09;3.20;99.90
20740;DHT22;10530;49.968;19.844;2022-12-26T03:47:40;3.00;99.90
20740;DHT22;10530;49.968;19.844;2022-12-26T03:53:27;2.90;99.90
20740;DHT22;10530;49.968;19.844;2022-12-26T03:59:16;2.80;99.90
20740;DHT22;10530;49.968;19.844;2022-12-26T04:04:42;2.70;99.90
20740;DHT22;10530;49.968;19.844;2022-12-26T04:10:16;2.70;99.90
20740;DHT22;10530;49.968;19.844;2022-12-26T04:15:43;2.60;99.90
20740;DHT22;10530;49.968;19.844;2022-12-26T04:21:20;2.50;99.90
20740;DHT22;10530;49.968;19.844;2022-12-26T04:26:47;2.50;99.90
20740;DHT22;10530;49.968;19.844;2022-12-26T04:32:14;2.50;99.90
20740;DHT22;10530;49.968;19.844;2022-12-26T04:37:41;2.50;99.90
20740;DHT22;10530;49.968;19.844;2022-12-26T04:43:06;2.50;99.90
20740;DHT22;10530;49.968;19.844;2022-12-26T04:48:50;2.40;99.90
20740;DHT22;10530;49.968;19.844;2022-12-26T04:54:12;2.40;99.90
20740;DHT22;10530;49.968;19.844;2022-12-26T04:59:16;2.40;99.90
20740;DHT22;10530;49.968;19.844;2022-12-26T05:04:19;2.40;99.90
20740;DHT22;10530;49.968;19.844;2022-12-26T05:09:41;2.50;99.90
20740;DHT22;10530;49.968;19.844;2022-12-26T05:14:43;2.50;99.90
20740;DHT22;10530;49.968;19.844;2022-12-26T05:19:46;2.50;99.90
20740;DHT22;10530;49.968;19.844;2022-12-26T05:25:17;2.50;99.90
20740;DHT22;10530;49.968;19.844;2022-12-26T05:31:00;2.40;99.90
20740;DHT22;10530;49.968;19.844;2022-12-26T05:36:03;2.20;99.90
20740;DHT22;10530;49.968;19.844;2022-12-26T05:41:06;2.00;99.90
20740;DHT22;10530;49.968;19.844;2022-12-26T05:46:09;1.80;99.90
20740;DHT22;10530;49.968;19.844;2022-12-26T05:51:12;1.80;99.90
20740;DHT22;10530;49.968;19.844;2022-12-26T05:56:16;1.80;99.90
20740;DHT22;10530;49.968;19.844;2022-12-26T06:01:20;1.70;99.90
20740;DHT22;10530;49.968;19.844;2022-12-26T06:06:24;1.70;99.90
20740;DHT22;10530;49.968;19.844;2022-12-26T06:11:27;1.60;99.90
20740;DHT22;10530;49.968;19.844;2022-12-26T06:16:30;1.60;99.90
20740;DHT22;10530;49.968;19.844;2022-12-26T06:21:33;1.70;99.90
20740;DHT22;10530;49.968;19.844;2022-12-26T06:26:36;1.60;99.90
20740;DHT22;10530;49.968;19.844;2022-12-26T06:31:39;1.70;99.90
20740;DHT22;10530;49.968;19.844;2022-12-26T06:36:42;1.80;99.90
20740;DHT22;10530;49.968;19.844;2022-12-26T06:41:44;2.00;99.90
20740;DHT22;10530;49.968;19.844;2022-12-26T06:46:47;1.90;99.90
20740;DHT22;10530;49.968;19.844;2022-12-26T06:51:50;2.20;99.90
20740;DHT22;10530;49.968;19.844;2022-12-26T06:56:53;2.10;99.90
20740;DHT22;10530;49.968;19.844;2022-12-26T07:01:56;2.10;99.90
20740;DHT22;10530;49.968;19.844;2022-12-26T07:06:59;2.30;99.90
20740;DHT22;10530;49.968;19.844;2022-12-26T07:12:02;2.30;99.90
20740;DHT22;10530;49.968;19.844;2022-12-26T07:17:04;2.40;99.90
20740;DHT22;10530;49.968;19.844;2022-12-26T07:22:07;2.80;99.90
20740;DHT22;10530;49.968;19.844;2022-12-26T07:27:10;3.20;99.90
20740;DHT22;10530;49.968;19.844;2022-12-26T07:32:13;4.00;99.90
20740;DHT22;10530;49.968;19.844;2022-12-26T07:37:16;4.30;99.90
20740;DHT22;10530;49.968;19.844;2022-12-26T07:42:19;5.20;99.90
20740;DHT22;10530;49.968;19.844;2022-12-26T07:47:22;6.90;99.90
20740;DHT22;10530;49.968;19.844;2022-12-26T07:52:25;8.10;99.90
20740;DHT22;10530;49.968;19.844;2022-12-26T07:57:28;8.30;99.90
20740;DHT22;10530;49.968;19.844;2022-12-26T08:02:50;7.60;99.90
20740;DHT22;10530;49.968;19.844;2022-12-26T08:07:55;7.20;99.90
20740;DHT22;10530;49.968;19.844;2022-12-26T08:12:58;6.90;99.90
20740;DHT22;10530;49.968;19.844;2022-12-26T08:18:00;6.90;99.90
20740;DHT22;10530;49.968;19.844;2022-12-26T08:23:03;7.10;99.90
20740;DHT22;10530;49.968;19.844;2022-12-26T08:28:06;7.80;99.90
20740;DHT22;10530;49.968;19.844;2022-12-26T08:33:10;7.60;99.90
20740;DHT22;10530;49.968;19.844;2022-12-26T08:38:13;7.20;99.90
20740;DHT22;10530;49.968;19.844;2022-12-26T08:43:15;7.10;99.90
20740;DHT22;10530;49.968;19.844;2022-12-26T08:48:40;6.90;99.90
20740;DHT22;10530;49.968;19.844;2022-12-26T08:53:44;6.60;99.90
20740;DHT22;10530;49.968;19.844;2022-12-26T08:58:51;6.50;99.90
20740;DHT22;10530;49.968;19.844;2022-12-26T09:03:56;6.30;99.90
20740;DHT22;10530;49.968;19.844;2022-12-26T09:08:59;6.10;99.90
20740;DHT22;10530;49.968;19.844;2022-12-26T09:14:03;6.10;99.90
20740;DHT22;10530;49.968;19.844;2022-12-26T09:19:06;6.70;99.90
20740;DHT22;10530;49.968;19.844;2022-12-26T09:24:14;7.30;99.90
20740;DHT22;10530;49.968;19.844;2022-12-26T09:29:17;7.50;99.90
20740;DHT22;10530;49.968;19.844;2022-12-26T09:34:20;7.30;99.90
20740;DHT22;10530;49.968;19.844;2022-12-26T09:39:23;7.10;99.90
20740;DHT22;10530;49.968;19.844;2022-12-26T09:50:04;7.30;99.90
20740;DHT22;10530;49.968;19.844;2022-12-26T10:00:52;7.60;99.90
20740;DHT22;10530;49.968;19.844;2022-12-26T10:11:34;7.80;99.90
20740;DHT22;10530;49.968;19.844;2022-12-26T10:27:48;8.60;99.90
20740;DHT22;10530;49.968;19.844;2022-12-26T10:32:56;8.80;99.90
20740;DHT22;10530;49.968;19.844;2022-12-26T10:38:11;9.10;99.90
20740;DHT22;10530;49.968;19.844;2022-12-26T10:43:32;9.20;99.90
20740;DHT22;10530;49.968;19.844;2022-12-26T10:48:35;9.40;99.90
20740;DHT22;10530;49.968;19.844;2022-12-26T10:53:42;9.60;99.90
20740;DHT22;10530;49.968;19.844;2022-12-26T10:58:56;9.80;99.90
20740;DHT22;10530;49.968;19.844;2022-12-26T11:04:23;9.70;99.90
20740;DHT22;10530;49.968;19.844;2022-12-26T11:09:50;10.00;99.90
20740;DHT22;10530;49.968;19.844;2022-12-26T11:15:01;10.60;99.90
20740;DHT22;10530;49.968;19.844;2022-12-26T11:20:26;10.80;99.90
20740;DHT22;10530;49.968;19.844;2022-12-26T11:25:29;11.30;99.90
20740;DHT22;10530;49.968;19.844;2022-12-26T11:30:37;12.10;99.90
20740;DHT22;10530;49.968;19.844;2022-12-26T11:40:53;14.20;99.90
20740;DHT22;10530;49.968;19.844;2022-12-26T11:46:14;13.30;99.90
20740;DHT22;10530;49.968;19.844;2022-12-26T11:51:35;12.80;99.90
20740;DHT22;10530;49.968;19.844;2022-12-26T11:56:39;12.20;99.90
20740;DHT22;10530;49.968;19.844;2022-12-26T12:01:42;12.70;99.90
20740;DHT22;10530;49.968;19.844;2022-12-26T12:06:55;14.50;99.90
20740;DHT22;10530;49.968;19.844;2022-12-26T12:12:24;15.10;99.90
20740;DHT22;10530;49.968;19.844;2022-12-26T12:17:48;14.00;99.90
20740;DHT22;10530;49.968;19.844;2022-12-26T12:23:19;13.60;99.90
20740;DHT22;10530;49.968;19.844;2022-12-26T12:28:47;13.90;99.90
20740;DHT22;10530;49.968;19.844;2022-12-26T12:39:37;14.20;99.90
20740;DHT22;10530;49.968;19.844;2022-12-26T12:44:55;14.10;99.90
20740;DHT22;10530;49.968;19.844;2022-12-26T12:50:04;14.50;99.90
20740;DHT22;10530;49.968;19.844;2022-12-26T13:01:00;14.10;99.90
20740;DHT22;10530;49.968;19.844;2022-12-26T13:06:05;13.50;99.90
20740;DHT22;10530;49.968;19.844;2022-12-26T13:16:17;13.10;99.90
20740;DHT22;10530;49.968;19.844;2022-12-26T13:21:21;13.10;99.90
20740;DHT22;10530;49.968;19.844;2022-12-26T13:26:33;12.90;99.90
20740;DHT22;10530;49.968;19.844;2022-12-26T13:31:38;12.70;99.90
20740;DHT22;10530;49.968;19.844;2022-12-26T13:36:50;12.50;99.90
20740;DHT22;10530;49.968;19.844;2022-12-26T13:47:35;12.40;99.90
20740;DHT22;10530;49.968;19.844;2022-12-26T13:52:39;12.30;99.90
20740;DHT22;10530;49.968;19.844;2022-12-26T13:57:43;12.00;99.90
20740;DHT22;10530;49.968;19.844;2022-12-26T14:30:16;11.40;99.90
20740;DHT22;10530;49.968;19.844;2022-12-26T14:35:37;11.30;99.90
20740;DHT22;10530;49.968;19.844;2022-12-26T14:41:05;11.40;99.90
20740;DHT22;10530;49.968;19.844;2022-12-26T14:51:35;11.40;99.90
20740;DHT22;10530;49.968;19.844;2022-12-26T14:56:39;11.10;99.90
20740;DHT22;10530;49.968;19.844;2022-12-26T15:01:46;11.00;99.90
20740;DHT22;10530;49.968;19.844;2022-12-26T15:44:38;9.40;99.90
20740;DHT22;10530;49.968;19.844;2022-12-26T15:50:09;9.30;99.90
20740;DHT22;10530;49.968;19.844;2022-12-26T15:55:39;9.10;99.90
20740;DHT22;10530;49.968;19.844;2022-12-26T16:00:50;9.10;99.90
20740;DHT22;10530;49.968;19.844;2022-12-26T16:11:21;8.80;99.90
20740;DHT22;10530;49.968;19.844;2022-12-26T16:16:30;9.00;99.90
20740;DHT22;10530;49.968;19.844;2022-12-26T16:21:33;8.80;99.90
20740;DHT22;10530;49.968;19.844;2022-12-26T16:27:00;8.80;99.90
20740;DHT22;10530;49.968;19.844;2022-12-26T16:32:04;8.80;99.90
20740;DHT22;10530;49.968;19.844;2022-12-26T16:37:10;8.80;99.90
20740;DHT22;10530;49.968;19.844;2022-12-26T16:42:30;9.00;99.90
20740;DHT22;10530;49.968;19.844;2022-12-26T16:47:33;9.30;99.90
20740;DHT22;10530;49.968;19.844;2022-12-26T16:52:37;10.00;99.90
20740;DHT22;10530;49.968;19.844;2022-12-26T16:57:50;10.40;99.90
20740;DHT22;10530;49.968;19.844;2022-12-26T17:02:56;10.60;99.90
20740;DHT22;10530;49.968;19.844;2022-12-26T17:08:01;10.90;99.90
20740;DHT22;10530;49.968;19.844;2022-12-26T17:13:06;10.70;99.90
20740;DHT22;10530;49.968;19.844;2022-12-26T17:18:51;10.70;99.90
20740;DHT22;10530;49.968;19.844;2022-12-26T17:24:21;10.30;99.90
20740;DHT22;10530;49.968;19.844;2022-12-26T17:34:47;10.00;99.90
20740;DHT22;10530;49.968;19.844;2022-12-26T17:39:52;10.70;99.90
20740;DHT22;10530;49.968;19.844;2022-12-26T17:45:04;10.30;99.90
20740;DHT22;10530;49.968;19.844;2022-12-26T17:50:07;10.00;99.90
20740;DHT22;10530;49.968;19.844;2022-12-26T17:55:15;10.10;99.90
20740;DHT22;10530;49.968;19.844;2022-12-26T18:00:24;10.20;99.90
20740;DHT22;10530;49.968;19.844;2022-12-26T18:05:28;10.00;99.90
20740;DHT22;10530;49.968;19.844;2022-12-26T18:10:35;9.80;99.90
20740;DHT22;10530;49.968;19.844;2022-12-26T18:15:38;9.70;99.90
20740;DHT22;10530;49.968;19.844;2022-12-26T18:20:41;9.90;99.90
20740;DHT22;10530;49.968;19.844;2022-12-26T18:25:44;10.00;99.90
20740;DHT22;10530;49.968;19.844;2022-12-26T18:30:54;9.90;99.90
20740;DHT22;10530;49.968;19.844;2022-12-26T18:35:58;10.00;99.90
20740;DHT22;10530;49.968;19.844;2022-12-26T18:41:18;10.10;99.90
20740;DHT22;10530;49.968;19.844;2022-12-26T18:46:23;10.00;99.90
20740;DHT22;10530;49.968;19.844;2022-12-26T18:51:26;10.00;99.90
20740;DHT22;10530;49.968;19.844;2022-12-26T18:56:29;9.80;99.90
20740;DHT22;10530;49.968;19.844;2022-12-26T19:01:32;9.90;99.90
20740;DHT22;10530;49.968;19.844;2022-12-26T19:06:36;10.00;99.90
20740;DHT22;10530;49.968;19.844;2022-12-26T19:11:40;9.90;99.90
20740;DHT22;10530;49.968;19.844;2022-12-26T19:16:44;9.90;99.90
20740;DHT22;10530;49.968;19.844;2022-12-26T19:21:47;9.80;99.90
20740;DHT22;10530;49.968;19.844;2022-12-26T19:26:49;10.00;99.90
20740;DHT22;10530;49.968;19.844;2022-12-26T19:31:52;9.90;99.90
20740;DHT22;10530;49.968;19.844;2022-12-26T19:36:57;10.00;99.90
20740;DHT22;10530;49.968;19.844;2022-12-26T19:42:00;10.30;99.90
20740;DHT22;10530;49.968;19.844;2022-12-26T19:47:03;10.70;99.90
20740;DHT22;10530;49.968;19.844;2022-12-26T19:52:14;9.80;99.90
20740;DHT22;10530;49.968;19.844;2022-12-26T19:57:17;9.50;99.90
20740;DHT22;10530;49.968;19.844;2022-12-26T20:02:19;9.40;99.90
20740;DHT22;10530;49.968;19.844;2022-12-26T20:07:22;8.90;99.90
20740;DHT22;10530;49.968;19.844;2022-12-26T20:12:25;8.90;99.90
20740;DHT22;10530;49.968;19.844;2022-12-26T20:17:28;8.70;99.90
20740;DHT22;10530;49.968;19.844;2022-12-26T20:22:31;8.70;99.90
20740;DHT22;10530;49.968;19.844;2022-12-26T20:27:35;9.00;99.90
20740;DHT22;10530;49.968;19.844;2022-12-26T20:32:38;9.00;99.90
20740;DHT22;10530;49.968;19.844;2022-12-26T20:37:45;9.50;99.90
20740;DHT22;10530;49.968;19.844;2022-12-26T20:42:48;9.50;99.90
20740;DHT22;10530;49.968;19.844;2022-12-26T20:47:51;9.50;99.90
20740;DHT22;10530;49.968;19.844;2022-12-26T20:52:53;9.30;99.90
20740;DHT22;10530;49.968;19.844;2022-12-26T20:57:56;9.10;99.90
20740;DHT22;10530;49.968;19.844;2022-12-26T21:02:59;9.20;99.90
20740;DHT22;10530;49.968;19.844;2022-12-26T21:08:02;9.20;99.90
20740;DHT22;10530;49.968;19.844;2022-12-26T21:13:05;9.20;99.90
20740;DHT22;10530;49.968;19.844;2022-12-26T21:18:09;9.30;99.90
20740;DHT22;10530;49.968;19.844;2022-12-26T21:23:12;9.30;99.90
20740;DHT22;10530;49.968;19.844;2022-12-26T21:28:15;9.30;99.90
20740;DHT22;10530;49.968;19.844;2022-12-26T21:33:17;9.40;99.90
20740;DHT22;10530;49.968;19.844;2022-12-26T21:38:21;9.40;99.90
20740;DHT22;10530;49.968;19.844;2022-12-26T21:43:24;9.40;99.90
20740;DHT22;10530;49.968;19.844;2022-12-26T21:48:31;9.60;99.90
20740;DHT22;10530;49.968;19.844;2022-12-26T21:53:34;9.70;99.90
20740;DHT22;10530;49.968;19.844;2022-12-26T21:58:38;9.70;99.90
20740;DHT22;10530;49.968;19.844;2022-12-26T22:03:59;9.70;99.90
20740;DHT22;10530;49.968;19.844;2022-12-26T22:09:20;9.50;99.90
20740;DHT22;10530;49.968;19.844;2022-12-26T22:14:23;9.40;99.90
20740;DHT22;10530;49.968;19.844;2022-12-26T22:19:26;9.30;99.90
20740;DHT22;10530;49.968;19.844;2022-12-26T22:24:28;9.20;99.90
20740;DHT22;10530;49.968;19.844;2022-12-26T22:29:31;9.00;99.90
20740;DHT22;10530;49.968;19.844;2022-12-26T22:34:34;8.80;99.90
20740;DHT22;10530;49.968;19.844;2022-12-26T22:39:37;8.90;99.90
20740;DHT22;10530;49.968;19.844;2022-12-26T22:44:40;8.80;99.90
20740;DHT22;10530;49.968;19.844;2022-12-26T22:49:43;8.70;99.90
20740;DHT22;10530;49.968;19.844;2022-12-26T22:54:46;8.80;99.90
20740;DHT22;10530;49.968;19.844;2022-12-26T22:59:49;8.60;99.90
20740;DHT22;10530;49.968;19.844;2022-12-26T23:05:11;8.60;99.90
20740;DHT22;10530;49.968;19.844;2022-12-26T23:10:18;8.60;99.90
20740;DHT22;10530;49.968;19.844;2022-12-26T23:15:24;8.60;99.90
20740;DHT22;10530;49.968;19.844;2022-12-26T23:20:30;8.60;99.90
20740;DHT22;10530;49.968;19.844;2022-12-26T23:25:58;8.60;99.90
20740;DHT22;10530;49.968;19.844;2022-12-26T23:31:01;8.60;99.90
20740;DHT22;10530;49.968;19.844;2022-12-26T23:36:07;8.60;99.90
20740;DHT22;10530;49.968;19.844;2022-12-26T23:41:10;8.50;99.90
20740;DHT22;10530;49.968;19.844;2022-12-26T23:46:13;8.80;99.90
20740;DHT22;10530;49.968;19.844;2022-12-26T23:51:16;8.90;99.90
20740;DHT22;10530;49.968;19.844;2022-12-26T23:56:18;9.20;99.90
